Wetterdaten: Woche 10.08.09 - 16.08.09 (KW33)
Datum Zeit Temp. A. Feuchte A. Luftdruck Regen Wind Richtung Taupunkt Windchill Windben
10.08.2009 00:00 16,6 C 87 % 1017,2 hPa 0,0 l/m 0,0 km/h N 14,5 C 16,6 C 0,0 km/h
10.08.2009 01:00 16,3 C 90 % 1017,1 hPa 0,0 l/m 0,0 km/h N 14,6 C 16,3 C 0,0 km/h
10.08.2009 02:00 16,2 C 91 % 1016,8 hPa 0,0 l/m 0,0 km/h N 14,6 C 16,2 C 0,0 km/h
10.08.2009 03:00 15,5 C 91 % 1016,6 hPa 0,0 l/m 0,0 km/h N 14,0 C 15,5 C 0,8 km/h
10.08.2009 04:00 15,0 C 92 % 1016,2 hPa 0,0 l/m 0,0 km/h N 13,8 C 15,0 C 0,0 km/h
10.08.2009 05:00 14,8 C 92 % 1015,9 hPa 0,0 l/m 0,0 km/h N 13,5 C 14,8 C 0,0 km/h
10.08.2009 06:00 14,8 C 93 % 1015,9 hPa 0,0 l/m 0,0 km/h N 13,7 C 14,8 C 0,8 km/h
10.08.2009 07:00 16,6 C 93 % 1015,8 hPa 0,0 l/m 0,0 km/h N 15,4 C 16,6 C 0,8 km/h
10.08.2009 08:00 18,7 C 85 % 1015,7 hPa 0,0 l/m 0,0 km/h N 16,1 C 18,7 C 3,2 km/h
10.08.2009 09:00 20,8 C 77 % 1015,3 hPa 0,0 l/m 0,8 km/h S-SW 16,5 C 20,8 C 7,2 km/h
10.08.2009 10:00 22,6 C 68 % 1015,1 hPa 0,0 l/m 1,3 km/h N 16,2 C 22,6 C 3,2 km/h
10.08.2009 11:00 24,7 C 65 % 1014,8 hPa 0,0 l/m 1,5 km/h N-NO 17,5 C 24,7 C 7,6 km/h
10.08.2009 12:00 26,3 C 55 % 1014,5 hPa 0,0 l/m 2,8 km/h O-SO 16,4 C 26,3 C 14,9 km/h
10.08.2009 13:00 26,5 C 55 % 1014,2 hPa 0,0 l/m 2,9 km/h O 16,6 C 26,5 C 8,9 km/h
10.08.2009 14:00 26,7 C 56 % 1013,7 hPa 0,0 l/m 2,3 km/h SO 17,1 C 26,7 C 7,2 km/h
10.08.2009 15:00 27,3 C 51 % 1013,3 hPa 0,0 l/m 2,2 km/h O-NO 16,3 C 27,3 C 10,9 km/h
10.08.2009 16:00 26,2 C 55 % 1012,9 hPa 0,0 l/m 0,7 km/h W-NW 16,3 C 26,2 C 5,2 km/h
10.08.2009 17:00 24,5 C 65 % 1012,8 hPa 0,0 l/m 0,6 km/h SW 17,5 C 24,5 C 3,2 km/h
10.08.2009 18:00 23,4 C 75 % 1012,8 hPa 0,0 l/m 0,5 km/h N 18,6 C 23,4 C 4,0 km/h
10.08.2009 19:00 22,4 C 81 % 1012,6 hPa 0,0 l/m 0,6 km/h N 18,9 C 22,4 C 4,8 km/h
10.08.2009 20:00 20,9 C 85 % 1013,6 hPa 16,9 l/m 3,1 km/h SO 18,2 C 20,9 C 15,7 km/h
10.08.2009 21:00 18,9 C 90 % 1014,4 hPa 7,2 l/m 1,3 km/h W-NW 17,2 C 18,9 C 6,4 km/h
10.08.2009 22:00 18,1 C 92 % 1014,3 hPa 7,8 l/m 0,1 km/h N 16,8 C 18,1 C 2,0 km/h
10.08.2009 23:00 17,9 C 92 % 1014,0 hPa 3,6 l/m 0,2 km/h N 16,6 C 17,9 C 2,8 km/h
11.08.2009 00:00 17,8 C 93 % 1014,0 hPa 0,9 l/m 0,1 km/h N 16,6 C 17,8 C 1,6 km/h
11.08.2009 01:00 17,7 C 93 % 1013,7 hPa 0,3 l/m 0,0 km/h N 16,5 C 17,7 C 1,2 km/h
11.08.2009 02:00 17,6 C 93 % 1013,5 hPa 0,0 l/m 0,1 km/h N 16,4 C 17,6 C 2,0 km/h
11.08.2009 03:00 17,6 C 93 % 1013,3 hPa 0,0 l/m 0,0 km/h N 16,5 C 17,6 C 1,2 km/h
11.08.2009 04:00 17,7 C 93 % 1013,2 hPa 0,0 l/m 0,3 km/h N 16,5 C 17,7 C 3,2 km/h
11.08.2009 05:00 18,4 C 88 % 1013,2 hPa 0,0 l/m 1,1 km/h S 16,4 C 18,4 C 7,2 km/h
11.08.2009 06:00 18,8 C 85 % 1013,5 hPa 0,0 l/m 1,4 km/h O-SO 16,3 C 18,8 C 8,0 km/h
11.08.2009 07:00 19,4 C 83 % 1013,8 hPa 0,0 l/m 3,0 km/h S 16,5 C 19,4 C 16,5 km/h
11.08.2009 08:00 19,5 C 83 % 1014,3 hPa 0,0 l/m 1,6 km/h NO 16,6 C 19,5 C 8,8 km/h
11.08.2009 09:00 19,7 C 82 % 1014,7 hPa 0,3 l/m 4,6 km/h NW 16,6 C 19,7 C 18,8 km/h
11.08.2009 10:00 19,1 C 87 % 1015,2 hPa 0,9 l/m 3,7 km/h NW 16,8 C 19,1 C 14,1 km/h
11.08.2009 11:00 20,5 C 81 % 1015,8 hPa 0,0 l/m 5,1 km/h SW 17,0 C 20,4 C 17,3 km/h
11.08.2009 12:00 21,0 C 79 % 1016,0 hPa 0,6 l/m 5,6 km/h NO 17,1 C 20,9 C 22,9 km/h
11.08.2009 13:00 22,0 C 74 % 1015,5 hPa 0,0 l/m 5,8 km/h S-SW 17,1 C 22,0 C 24,9 km/h
11.08.2009 14:00 23,9 C 65 % 1015,1 hPa 0,0 l/m 6,6 km/h NW 16,8 C 23,8 C 22,9 km/h
11.08.2009 15:00 23,3 C 63 % 1015,5 hPa 0,6 l/m 6,4 km/h N-NW 15,7 C 23,3 C 25,3 km/h
11.08.2009 16:00 21,4 C 74 % 1016,1 hPa 0,0 l/m 4,3 km/h N-NW 16,4 C 21,4 C 10,5 km/h
11.08.2009 17:00 23,1 C 67 % 1015,8 hPa 0,0 l/m 3,5 km/h S-SW 16,5 C 23,1 C 11,7 km/h
11.08.2009 18:00 22,7 C 65 % 1015,7 hPa 0,0 l/m 3,8 km/h NO 15,7 C 22,7 C 14,9 km/h
11.08.2009 19:00 21,7 C 67 % 1015,7 hPa 0,0 l/m 4,9 km/h S 15,2 C 21,7 C 22,5 km/h
11.08.2009 20:00 21,3 C 67 % 1016,0 hPa 0,0 l/m 4,2 km/h S 14,9 C 21,3 C 18,1 km/h
11.08.2009 21:00 21,3 C 67 % 1016,5 hPa 0,0 l/m 2,6 km/h S-SW 15,0 C 21,3 C 14,5 km/h
11.08.2009 22:00 21,2 C 68 % 1016,6 hPa 0,0 l/m 2,6 km/h SO 15,0 C 21,2 C 14,9 km/h
11.08.2009 23:00 21,2 C 67 % 1016,8 hPa 0,0 l/m 3,1 km/h N-NO 14,9 C 21,2 C 15,3 km/h
12.08.2009 00:00 20,8 C 72 % 1016,8 hPa 0,0 l/m 4,3 km/h SW 15,5 C 20,8 C 19,7 km/h
12.08.2009 01:00 20,6 C 73 % 1016,9 hPa 0,0 l/m 3,8 km/h S-SW 15,6 C 20,6 C 16,9 km/h
12.08.2009 02:00 20,4 C 73 % 1017,0 hPa 0,0 l/m 3,4 km/h NW 15,4 C 20,4 C 18,1 km/h
12.08.2009 03:00 19,6 C 76 % 1017,5 hPa 0,0 l/m 1,1 km/h W-SW 15,2 C 19,6 C 6,4 km/h
12.08.2009 04:00 19,5 C 78 % 1017,4 hPa 0,0 l/m 1,4 km/h S-SW 15,4 C 19,5 C 9,3 km/h
12.08.2009 05:00 19,4 C 77 % 1017,4 hPa 0,0 l/m 1,5 km/h NW 15,2 C 19,4 C 10,5 km/h
12.08.2009 06:00 19,5 C 76 % 1017,4 hPa 0,0 l/m 2,1 km/h O 15,3 C 19,5 C 9,6 km/h
12.08.2009 07:00 20,0 C 76 % 1018,0 hPa 0,0 l/m 2,6 km/h S-SW 15,5 C 20,0 C 11,7 km/h
12.08.2009 08:00 20,6 C 73 % 1018,2 hPa 0,0 l/m 2,2 km/h W 15,6 C 20,6 C 10,9 km/h
12.08.2009 09:00 21,7 C 71 % 1018,2 hPa 0,0 l/m 1,7 km/h W-SW 16,2 C 21,7 C 10,1 km/h
12.08.2009 10:00 22,2 C 70 % 1018,0 hPa 0,0 l/m 1,1 km/h S-SW 16,5 C 22,2 C 7,2 km/h
12.08.2009 11:00 23,8 C 65 % 1017,7 hPa 0,0 l/m 3,3 km/h N-NW 16,7 C 23,8 C 12,5 km/h
12.08.2009 12:00 24,5 C 61 % 1017,5 hPa 0,0 l/m 4,5 km/h NW 16,4 C 24,5 C 16,5 km/h
12.08.2009 13:00 25,2 C 57 % 1017,0 hPa 0,0 l/m 4,2 km/h SW 15,9 C 25,2 C 12,9 km/h
12.08.2009 14:00 23,9 C 61 % 1016,9 hPa 0,0 l/m 2,4 km/h W-SW 15,9 C 23,9 C 11,7 km/h
12.08.2009 15:00 24,3 C 60 % 1016,6 hPa 0,0 l/m 3,2 km/h S-SO 15,9 C 24,3 C 14,0 km/h
12.08.2009 16:00 24,1 C 59 % 1016,5 hPa 0,0 l/m 3,5 km/h W-SW 15,5 C 24,1 C 15,7 km/h
12.08.2009 17:00 23,2 C 57 % 1016,3 hPa 0,0 l/m 3,6 km/h S-SW 14,2 C 23,2 C 18,5 km/h
12.08.2009 18:00 23,0 C 60 % 1015,8 hPa 0,0 l/m 2,0 km/h SW 14,9 C 23,0 C 9,6 km/h
12.08.2009 19:00 21,7 C 68 % 1015,7 hPa 0,0 l/m 0,3 km/h N 15,6 C 21,7 C 2,8 km/h
12.08.2009 20:00 20,6 C 73 % 1015,7 hPa 0,0 l/m 0,1 km/h N 15,5 C 20,6 C 1,2 km/h
12.08.2009 21:00 19,9 C 75 % 1015,9 hPa 0,0 l/m 0,0 km/h N 15,2 C 19,9 C 0,8 km/h
12.08.2009 22:00 18,6 C 81 % 1015,9 hPa 0,0 l/m 0,0 km/h N 15,3 C 18,6 C 0,8 km/h
12.08.2009 23:00 18,2 C 83 % 1015,8 hPa 0,0 l/m 0,0 km/h N 15,3 C 18,2 C 0,0 km/h
13.08.2009 00:00 18,0 C 81 % 1015,7 hPa 0,0 l/m 0,0 km/h N 14,7 C 18,0 C 0,8 km/h
13.08.2009 01:00 17,9 C 81 % 1015,4 hPa 0,0 l/m 0,0 km/h N 14,6 C 17,9 C 0,8 km/h
13.08.2009 02:00 18,2 C 79 % 1014,9 hPa 0,0 l/m 0,0 km/h N 14,5 C 18,2 C 0,4 km/h
13.08.2009 03:00 18,4 C 78 % 1014,4 hPa 0,0 l/m 0,2 km/h N 14,5 C 18,4 C 2,4 km/h
13.08.2009 04:00 18,5 C 78 % 1013,9 hPa 0,0 l/m 0,3 km/h N 14,5 C 18,5 C 3,6 km/h
13.08.2009 05:00 18,5 C 78 % 1013,5 hPa 0,0 l/m 0,1 km/h N 14,6 C 18,5 C 1,6 km/h
13.08.2009 06:00 18,5 C 78 % 1013,4 hPa 0,0 l/m 0,8 km/h SW 14,6 C 18,5 C 4,0 km/h
13.08.2009 07:00 19,7 C 73 % 1013,4 hPa 0,0 l/m 1,8 km/h SW 14,7 C 19,7 C 7,2 km/h
13.08.2009 08:00 20,7 C 71 % 1013,6 hPa 0,0 l/m 1,8 km/h SW 15,2 C 20,7 C 7,2 km/h
13.08.2009 09:00 21,8 C 68 % 1013,7 hPa 0,0 l/m 2,3 km/h SW 15,6 C 21,8 C 12,0 km/h
13.08.2009 10:00 22,8 C 63 % 1013,8 hPa 0,0 l/m 4,3 km/h S 15,5 C 22,8 C 15,7 km/h
13.08.2009 11:00 22,3 C 68 % 1014,2 hPa 0,0 l/m 4,7 km/h W-NW 16,0 C 22,3 C 20,1 km/h
13.08.2009 12:00 21,4 C 73 % 1014,3 hPa 0,0 l/m 5,3 km/h O-NO 16,3 C 21,3 C 23,7 km/h
13.08.2009 13:00 23,9 C 66 % 1014,0 hPa 0,0 l/m 8,0 km/h S 17,0 C 23,4 C 29,0 km/h
13.08.2009 14:00 24,4 C 63 % 1013,7 hPa 0,0 l/m 7,4 km/h S 16,7 C 24,1 C 23,3 km/h
13.08.2009 15:00 24,3 C 65 % 1013,6 hPa 0,0 l/m 5,8 km/h N-NW 17,3 C 24,3 C 22,1 km/h
13.08.2009 16:00 22,5 C 70 % 1013,6 hPa 0,0 l/m 6,0 km/h N-NW 16,7 C 22,4 C 13,3 km/h
13.08.2009 17:00 19,5 C 88 % 1014,4 hPa 4,2 l/m 1,8 km/h N-NW 17,5 C 19,5 C 6,0 km/h
13.08.2009 18:00 19,3 C 90 % 1014,2 hPa 0,3 l/m 0,2 km/h N 17,6 C 19,3 C 2,0 km/h
13.08.2009 19:00 19,2 C 90 % 1014,0 hPa 0,0 l/m 0,0 km/h N 17,5 C 19,2 C 1,2 km/h
13.08.2009 20:00 19,0 C 92 % 1014,2 hPa 0,0 l/m 0,0 km/h N 17,6 C 19,0 C 0,0 km/h
13.08.2009 21:00 19,0 C 92 % 1014,7 hPa 0,0 l/m 0,0 km/h N 17,6 C 19,0 C 0,4 km/h
13.08.2009 22:00 18,6 C 92 % 1014,7 hPa 0,0 l/m 0,0 km/h N 17,2 C 18,6 C 0,0 km/h
13.08.2009 23:00 17,9 C 93 % 1014,7 hPa 0,0 l/m 0,0 km/h N 16,6 C 17,9 C 0,0 km/h
14.08.2009 00:00 17,9 C 92 % 1014,7 hPa 0,0 l/m 0,1 km/h N 16,5 C 17,9 C 1,2 km/h
14.08.2009 01:00 18,8 C 85 % 1014,6 hPa 0,0 l/m 0,7 km/h W 16,2 C 18,8 C 8,4 km/h
14.08.2009 02:00 18,8 C 85 % 1014,6 hPa 0,0 l/m 0,1 km/h N 16,2 C 18,8 C 0,8 km/h
14.08.2009 03:00 18,5 C 87 % 1014,6 hPa 0,0 l/m 0,4 km/h N-NW 16,3 C 18,5 C 3,2 km/h
14.08.2009 04:00 18,3 C 87 % 1014,8 hPa 0,0 l/m 1,5 km/h N-NW 16,0 C 18,3 C 4,8 km/h
14.08.2009 05:00 17,0 C 89 % 1015,6 hPa 0,0 l/m 1,5 km/h N-NW 15,1 C 17,0 C 6,0 km/h
14.08.2009 06:00 16,1 C 91 % 1016,0 hPa 0,0 l/m 0,5 km/h N-NW 14,6 C 16,1 C 3,2 km/h
14.08.2009 07:00 16,3 C 91 % 1016,2 hPa 0,0 l/m 0,1 km/h SW 14,8 C 16,3 C 1,2 km/h
14.08.2009 08:00 17,4 C 87 % 1016,6 hPa 0,0 l/m 0,6 km/h N 15,3 C 17,4 C 4,0 km/h
14.08.2009 09:00 18,7 C 81 % 1017,0 hPa 0,0 l/m 0,5 km/h N 15,4 C 18,7 C 4,4 km/h
14.08.2009 10:00 20,0 C 75 % 1017,3 hPa 0,0 l/m 1,5 km/h N-NW 15,4 C 20,0 C 7,2 km/h
14.08.2009 11:00 21,4 C 68 % 1017,4 hPa 0,0 l/m 2,5 km/h NW 15,1 C 21,4 C 8,9 km/h
14.08.2009 12:00 22,1 C 63 % 1017,3 hPa 0,0 l/m 1,5 km/h N-NO 14,7 C 22,1 C 6,8 km/h
14.08.2009 13:00 22,9 C 60 % 1017,1 hPa 0,0 l/m 1,5 km/h N 14,8 C 22,9 C 6,4 km/h
14.08.2009 14:00 23,8 C 54 % 1016,8 hPa 0,0 l/m 1,4 km/h N-NO 13,8 C 23,8 C 5,6 km/h
14.08.2009 15:00 24,1 C 53 % 1016,7 hPa 0,0 l/m 1,1 km/h SW 13,9 C 24,1 C 5,2 km/h
14.08.2009 16:00 24,3 C 53 % 1016,6 hPa 0,0 l/m 1,0 km/h W 14,2 C 24,3 C 6,4 km/h
14.08.2009 17:00 23,7 C 54 % 1016,6 hPa 0,0 l/m 0,8 km/h W-SW 13,8 C 23,7 C 4,8 km/h
14.08.2009 18:00 22,8 C 61 % 1016,8 hPa 0,0 l/m 0,1 km/h N 14,8 C 22,8 C 2,8 km/h
14.08.2009 19:00 22,4 C 63 % 1016,9 hPa 0,0 l/m 0,2 km/h N 14,9 C 22,4 C 2,4 km/h
14.08.2009 20:00 20,7 C 73 % 1017,3 hPa 0,0 l/m 0,1 km/h N 15,6 C 20,7 C 2,0 km/h
14.08.2009 21:00 19,4 C 76 % 1018,0 hPa 0,0 l/m 0,3 km/h N 15,1 C 19,4 C 3,2 km/h
14.08.2009 22:00 18,0 C 80 % 1018,4 hPa 0,0 l/m 0,2 km/h N 14,5 C 18,0 C 3,2 km/h
14.08.2009 23:00 17,5 C 83 % 1018,9 hPa 0,0 l/m 0,1 km/h N 14,5 C 17,5 C 2,0 km/h
15.08.2009 00:00 17,0 C 85 % 1019,1 hPa 0,0 l/m 0,2 km/h N 14,4 C 17,0 C 3,2 km/h
15.08.2009 01:00 16,9 C 85 % 1019,0 hPa 0,0 l/m 0,3 km/h N 14,3 C 16,9 C 4,4 km/h
15.08.2009 02:00 16,8 C 85 % 1018,9 hPa 0,0 l/m 0,1 km/h N 14,2 C 16,8 C 2,8 km/h
15.08.2009 03:00 16,2 C 86 % 1018,9 hPa 0,0 l/m 0,1 km/h N 13,8 C 16,2 C 2,8 km/h
15.08.2009 04:00 15,6 C 87 % 1018,9 hPa 0,0 l/m 0,3 km/h N 13,4 C 15,6 C 5,2 km/h
15.08.2009 05:00 14,9 C 89 % 1019,0 hPa 0,0 l/m 0,1 km/h N 13,1 C 14,9 C 2,8 km/h
15.08.2009 06:00 14,9 C 88 % 1019,3 hPa 0,0 l/m 0,1 km/h N 13,0 C 14,9 C 2,4 km/h
15.08.2009 07:00 15,9 C 87 % 1019,5 hPa 0,0 l/m 0,0 km/h N 13,7 C 15,9 C 1,2 km/h
15.08.2009 08:00 17,8 C 81 % 1019,8 hPa 0,0 l/m 0,1 km/h N 14,5 C 17,8 C 1,2 km/h
15.08.2009 09:00 19,7 C 75 % 1019,9 hPa 0,0 l/m 0,1 km/h N 15,0 C 19,7 C 1,6 km/h
15.08.2009 10:00 21,0 C 72 % 1020,1 hPa 0,0 l/m 0,2 km/h N 15,6 C 21,0 C 1,6 km/h
15.08.2009 11:00 22,8 C 67 % 1020,0 hPa 0,0 l/m 0,5 km/h NO 16,3 C 22,8 C 2,8 km/h
15.08.2009 12:00 24,2 C 60 % 1019,5 hPa 0,0 l/m 1,1 km/h N-NO 15,8 C 24,2 C 5,2 km/h
15.08.2009 13:00 24,5 C 62 % 1019,0 hPa 0,0 l/m 0,8 km/h N 16,8 C 24,5 C 4,0 km/h
15.08.2009 14:00 25,1 C 58 % 1018,7 hPa 0,0 l/m 0,8 km/h N-NO 16,1 C 25,1 C 4,0 km/h
15.08.2009 15:00 26,3 C 55 % 1018,3 hPa 0,0 l/m 0,8 km/h O-NO 16,6 C 26,3 C 4,4 km/h
15.08.2009 16:00 26,0 C 55 % 1018,1 hPa 0,0 l/m 0,9 km/h O-NO 16,4 C 26,0 C 4,0 km/h
15.08.2009 17:00 26,3 C 57 % 1017,8 hPa 0,0 l/m 0,6 km/h N 17,2 C 26,3 C 4,0 km/h
15.08.2009 18:00 25,6 C 57 % 1017,5 hPa 0,0 l/m 0,4 km/h N 16,4 C 25,6 C 2,4 km/h
15.08.2009 19:00 24,5 C 62 % 1017,3 hPa 0,0 l/m 0,3 km/h N 16,7 C 24,5 C 1,2 km/h
15.08.2009 20:00 21,9 C 74 % 1017,4 hPa 0,0 l/m 0,0 km/h N 17,0 C 21,9 C 0,0 km/h
15.08.2009 21:00 20,0 C 82 % 1017,5 hPa 0,0 l/m 0,0 km/h N 16,8 C 20,0 C 0,0 km/h
15.08.2009 22:00 18,7 C 87 % 1017,6 hPa 0,0 l/m 0,0 km/h N 16,5 C 18,7 C 0,0 km/h
15.08.2009 23:00 18,0 C 89 % 1017,8 hPa 0,0 l/m 0,0 km/h N 16,0 C 18,0 C 0,0 km/h
16.08.2009 00:00 17,4 C 91 % 1017,7 hPa 0,0 l/m 0,0 km/h N 15,8 C 17,4 C 0,0 km/h
16.08.2009 01:00 16,9 C 92 % 1017,7 hPa 0,0 l/m 0,0 km/h N 15,5 C 16,9 C 0,4 km/h
16.08.2009 02:00 17,0 C 92 % 1017,4 hPa 0,0 l/m 0,0 km/h N 15,6 C 17,0 C 2,0 km/h
16.08.2009 03:00 17,1 C 91 % 1017,2 hPa 0,0 l/m 0,1 km/h N 15,6 C 17,1 C 2,4 km/h
16.08.2009 04:00 16,6 C 91 % 1017,1 hPa 0,0 l/m 0,0 km/h N 15,1 C 16,6 C 0,4 km/h
16.08.2009 05:00 15,8 C 92 % 1017,1 hPa 0,0 l/m 0,0 km/h N 14,5 C 15,8 C 0,4 km/h
16.08.2009 06:00 15,6 C 93 % 1017,5 hPa 0,0 l/m 0,0 km/h N 14,4 C 15,6 C 0,0 km/h
16.08.2009 07:00 17,1 C 92 % 1017,7 hPa 0,0 l/m 0,0 km/h N 15,7 C 17,1 C 0,4 km/h
16.08.2009 08:00 19,2 C 86 % 1017,8 hPa 0,0 l/m 0,0 km/h N 16,7 C 19,2 C 1,2 km/h
16.08.2009 09:00 20,9 C 82 % 1017,8 hPa 0,0 l/m 0,0 km/h N 17,8 C 20,9 C 1,6 km/h
16.08.2009 10:00 22,8 C 77 % 1017,7 hPa 0,0 l/m 0,3 km/h N 18,6 C 22,8 C 1,6 km/h
16.08.2009 11:00 24,6 C 72 % 1017,5 hPa 0,0 l/m 0,4 km/h N 19,1 C 24,6 C 2,4 km/h
16.08.2009 12:00 26,2 C 66 % 1017,1 hPa 0,0 l/m 0,8 km/h N 19,4 C 26,2 C 4,0 km/h
16.08.2009 13:00 27,1 C 63 % 1016,6 hPa 0,0 l/m 0,9 km/h N-NO 19,4 C 27,1 C 3,6 km/h
16.08.2009 14:00 28,1 C 58 % 1016,0 hPa 0,0 l/m 0,9 km/h O 19,0 C 28,1 C 3,2 km/h
16.08.2009 15:00 28,9 C 59 % 1015,5 hPa 0,0 l/m 0,7 km/h S-SO 19,9 C 28,9 C 4,8 km/h
16.08.2009 16:00 30,3 C 52 % 1015,1 hPa 0,0 l/m 1,5 km/h S 19,3 C 30,3 C 8,4 km/h
16.08.2009 17:00 30,6 C 50 % 1014,9 hPa 0,0 l/m 1,8 km/h SW 18,8 C 30,6 C 7,6 km/h
16.08.2009 18:00 29,6 C 48 % 1014,7 hPa 0,0 l/m 1,3 km/h SW 17,2 C 29,6 C 6,4 km/h
16.08.2009 19:00 27,0 C 61 % 1014,7 hPa 0,0 l/m 0,2 km/h N 18,6 C 27,0 C 2,8 km/h
16.08.2009 20:00 24,0 C 73 % 1014,7 hPa 0,0 l/m 0,1 km/h N 18,7 C 24,0 C 2,0 km/h
16.08.2009 21:00 22,9 C 75 % 1014,9 hPa 0,0 l/m 0,3 km/h N 18,2 C 22,9 C 3,6 km/h
16.08.2009 22:00 21,7 C 80 % 1015,2 hPa 0,0 l/m 0,2 km/h N 18,0 C 21,7 C 2,8 km/h
16.08.2009 23:00 21,5 C 78 % 1015,3 hPa 0,0 l/m 0,5 km/h N 17,5 C 21,5 C 3,2 km/h
Min-Datum _ 10.08.09 16.08.09 10.08.09 - 10.08.09 - 15.08.09 10.08.09 10.08.09
_ Min-Zeit 05:30 18:15 19:30 - 00:00 - 05:00 05:30 00:00
Minimum _ 14,7 C 45 % 1012,5 hPa - 0,0 km/h - 12,9 C 14,7 C 0,0 km/h
Max-Datum _ 16.08.09 10.08.09 15.08.09 10.08.09 13.08.09 - 16.08.09 16.08.09 13.08.09
_ Max-Zeit 17:30 06:00 11:00 20:30 13:45 - 15:45 17:30 12:00
Maximum _ 31,1 C 93 % 1020,2 hPa 16,9 l/m 9,4 km/h
S
- 20,6 C 31,1 C 33,8 km/h
SW
Durchschnitt _ 20,8 C 75 % 1016,1 hPa #43,6 l/m 1,4 km/h SW 16,0 C 20,8 C 6,6 km/h